createdAt,value
2022-12-20T00:00:49.437Z,2.80
2022-12-20T00:01:52.749Z,2.90
2022-12-20T00:02:55.772Z,2.80
2022-12-20T00:04:00.239Z,2.90
2022-12-20T00:05:03.200Z,2.90
2022-12-20T00:06:05.914Z,2.80
2022-12-20T00:07:08.899Z,2.90
2022-12-20T00:08:11.042Z,2.90
2022-12-20T00:09:14.054Z,2.80
2022-12-20T00:10:17.426Z,2.90
2022-12-20T00:11:20.424Z,2.90
2022-12-20T00:12:22.463Z,2.90
2022-12-20T00:13:25.399Z,2.80
2022-12-20T00:14:27.319Z,2.80
2022-12-20T00:15:31.351Z,2.80
2022-12-20T00:16:33.365Z,2.90
2022-12-20T00:17:36.346Z,2.90
2022-12-20T00:18:39.831Z,2.80
2022-12-20T00:19:44.899Z,2.80
2022-12-20T00:20:46.798Z,2.90
2022-12-20T00:21:49.819Z,2.80
2022-12-20T00:22:51.836Z,2.80
2022-12-20T00:23:55.881Z,2.90
2022-12-20T00:24:57.890Z,2.90
2022-12-20T00:26:07.311Z,2.90
2022-12-20T00:27:09.292Z,2.90
2022-12-20T00:28:12.251Z,2.90
2022-12-20T00:29:14.701Z,2.90
2022-12-20T00:30:18.177Z,3.00
2022-12-20T00:31:22.152Z,2.90
2022-12-20T00:32:25.250Z,2.90
2022-12-20T00:33:27.734Z,2.90
2022-12-20T00:34:30.694Z,2.90
2022-12-20T00:35:32.657Z,2.80
2022-12-20T00:36:35.641Z,2.90
2022-12-20T00:37:37.812Z,2.80
2022-12-20T00:38:40.891Z,2.90
2022-12-20T00:39:42.807Z,2.90
2022-12-20T00:40:45.743Z,2.80
2022-12-20T00:41:49.060Z,2.80
2022-12-20T00:42:51.942Z,2.80
2022-12-20T00:43:54.751Z,2.70
2022-12-20T00:44:57.695Z,2.80
2022-12-20T00:46:00.454Z,2.80
2022-12-20T00:47:03.496Z,2.90
2022-12-20T00:48:06.254Z,2.90
2022-12-20T00:49:09.183Z,2.90
2022-12-20T00:50:11.289Z,2.90
2022-12-20T00:51:16.473Z,2.90
2022-12-20T00:52:18.629Z,3.00
2022-12-20T00:53:26.300Z,2.90
2022-12-20T00:54:28.727Z,2.90
2022-12-20T00:55:31.687Z,2.90
2022-12-20T00:56:33.615Z,2.90
2022-12-20T00:57:37.904Z,3.00
2022-12-20T00:58:42.286Z,2.90
2022-12-20T00:59:45.223Z,2.90
2022-12-20T01:00:54.030Z,2.90
2022-12-20T01:01:59.076Z,3.00
2022-12-20T01:03:01.270Z,2.90
2022-12-20T01:04:05.050Z,3.00
2022-12-20T01:05:07.702Z,3.00
2022-12-20T01:06:11.825Z,3.00
2022-12-20T01:07:13.735Z,3.00
2022-12-20T01:08:16.657Z,3.00
2022-12-20T01:09:18.589Z,3.00
2022-12-20T01:10:21.524Z,2.90
2022-12-20T01:11:25.423Z,2.90
2022-12-20T01:12:28.415Z,2.90
2022-12-20T01:13:33.906Z,2.90
2022-12-20T01:14:36.825Z,2.90
2022-12-20T01:15:38.802Z,2.90
2022-12-20T01:16:43.481Z,2.90
2022-12-20T01:17:45.542Z,2.90
2022-12-20T01:18:49.920Z,3.00
2022-12-20T01:19:51.940Z,2.90
2022-12-20T01:21:03.144Z,2.90
2022-12-20T01:22:06.059Z,2.90
2022-12-20T01:23:07.978Z,2.90
2022-12-20T01:24:11.065Z,3.00
2022-12-20T01:25:13.056Z,3.00
2022-12-20T01:26:17.871Z,3.00
2022-12-20T01:27:19.840Z,3.00
2022-12-20T01:28:22.805Z,3.00
2022-12-20T01:29:27.155Z,2.90
2022-12-20T01:30:29.087Z,3.00
2022-12-20T01:31:32.307Z,3.00
2022-12-20T01:32:34.439Z,2.90
2022-12-20T01:33:37.864Z,2.90
2022-12-20T01:34:40.937Z,2.80
2022-12-20T01:35:42.889Z,2.80
2022-12-20T01:36:45.902Z,2.80
2022-12-20T01:37:48.273Z,2.80
2022-12-20T01:38:51.223Z,2.90
2022-12-20T01:39:53.229Z,2.90
2022-12-20T01:41:17.657Z,2.90
2022-12-20T01:42:19.648Z,2.90
2022-12-20T01:43:23.263Z,2.90
2022-12-20T01:45:05.463Z,2.90
2022-12-20T01:46:08.971Z,3.00
2022-12-20T01:47:13.624Z,3.00
2022-12-20T01:48:21.704Z,2.90
2022-12-20T01:49:29.698Z,2.90
2022-12-20T01:50:31.691Z,3.00
2022-12-20T01:51:39.972Z,2.90
2022-12-20T01:52:44.844Z,3.00
2022-12-20T01:53:50.776Z,3.00
2022-12-20T01:54:56.502Z,3.00
2022-12-20T01:56:04.262Z,2.90
2022-12-20T01:57:11.538Z,2.90
2022-12-20T01:58:15.875Z,2.90
2022-12-20T01:59:17.855Z,2.90
2022-12-20T02:00:21.529Z,3.00
2022-12-20T02:01:25.657Z,2.90
2022-12-20T02:02:28.923Z,3.00
2022-12-20T02:03:32.403Z,3.00
2022-12-20T02:04:35.442Z,3.00
2022-12-20T02:05:39.421Z,3.00
2022-12-20T02:06:42.418Z,3.00
2022-12-20T02:07:48.664Z,3.10
2022-12-20T02:08:53.707Z,2.90
2022-12-20T02:09:58.258Z,2.90
2022-12-20T02:11:16.931Z,2.80
2022-12-20T02:12:21.720Z,2.90
2022-12-20T02:13:33.995Z,2.80
2022-12-20T02:14:58.374Z,2.80
2022-12-20T02:16:00.557Z,2.80
2022-12-20T02:17:13.912Z,2.90
2022-12-20T02:18:22.161Z,2.90
2022-12-20T02:19:51.569Z,2.90
2022-12-20T02:21:18.612Z,2.90
2022-12-20T02:22:29.735Z,2.80
2022-12-20T02:24:02.544Z,2.80
2022-12-20T02:25:29.312Z,2.80
2022-12-20T02:27:11.083Z,2.90
2022-12-20T02:28:27.100Z,2.80
2022-12-20T02:29:36.479Z,2.80
2022-12-20T02:30:42.879Z,2.80
2022-12-20T02:31:54.020Z,2.80
2022-12-20T02:33:00.210Z,2.80
2022-12-20T02:34:04.226Z,2.80
2022-12-20T02:35:08.884Z,2.90
2022-12-20T02:36:11.873Z,2.90
2022-12-20T02:37:13.873Z,2.80
2022-12-20T02:38:30.029Z,2.90
2022-12-20T02:39:33.671Z,2.90
2022-12-20T02:40:42.256Z,2.90
2022-12-20T02:41:48.679Z,2.90
2022-12-20T02:42:54.713Z,2.80
2022-12-20T02:44:18.317Z,2.80
2022-12-20T02:45:23.262Z,2.90
2022-12-20T02:46:28.349Z,2.80
2022-12-20T02:47:34.563Z,2.80
2022-12-20T02:48:39.491Z,2.80
2022-12-20T02:49:43.490Z,2.90
2022-12-20T02:50:50.348Z,2.90
2022-12-20T02:51:54.927Z,2.90
2022-12-20T02:52:58.666Z,2.80
2022-12-20T02:54:01.737Z,2.80
2022-12-20T02:55:06.221Z,2.90
2022-12-20T02:56:14.687Z,2.90
2022-12-20T02:57:22.505Z,2.90
2022-12-20T02:58:33.163Z,2.90
2022-12-20T02:59:41.555Z,2.80
2022-12-20T03:00:49.280Z,2.80
2022-12-20T03:01:55.171Z,2.80
2022-12-20T03:03:16.075Z,2.90
2022-12-20T03:04:21.250Z,2.80
2022-12-20T03:05:25.894Z,2.80
2022-12-20T03:06:30.670Z,2.80
2022-12-20T03:07:34.579Z,2.70
2022-12-20T03:08:37.525Z,2.80
2022-12-20T03:09:42.970Z,2.90
2022-12-20T03:10:46.017Z,2.80
2022-12-20T03:11:47.948Z,2.80
2022-12-20T03:12:50.883Z,2.80
2022-12-20T03:13:52.851Z,2.70
2022-12-20T03:14:55.828Z,2.70
2022-12-20T03:15:58.000Z,2.70
2022-12-20T03:17:02.533Z,2.80
2022-12-20T03:18:04.801Z,2.80
2022-12-20T03:19:07.972Z,2.80
2022-12-20T03:20:11.247Z,2.80
2022-12-20T03:21:14.210Z,2.80
2022-12-20T03:22:16.208Z,2.70
2022-12-20T03:23:19.193Z,2.70
2022-12-20T03:24:21.230Z,2.70
2022-12-20T03:25:24.238Z,2.70
2022-12-20T03:26:26.174Z,2.70
2022-12-20T03:27:29.453Z,2.80
2022-12-20T03:28:31.408Z,2.80
2022-12-20T03:29:34.357Z,2.80
2022-12-20T03:30:36.483Z,2.80
2022-12-20T03:31:39.746Z,2.80
2022-12-20T03:32:43.197Z,2.80
2022-12-20T03:33:46.155Z,2.70
2022-12-20T03:34:48.405Z,2.70
2022-12-20T03:35:51.343Z,2.70
2022-12-20T03:36:53.277Z,2.70
2022-12-20T03:37:56.863Z,2.70
2022-12-20T03:38:59.213Z,2.70
2022-12-20T03:40:02.190Z,2.70
2022-12-20T03:41:04.157Z,2.70
2022-12-20T03:42:07.154Z,2.70
2022-12-20T03:43:09.152Z,2.80
2022-12-20T03:44:12.199Z,2.70
2022-12-20T03:45:14.269Z,2.70
2022-12-20T03:46:17.503Z,2.70
2022-12-20T03:47:19.702Z,2.70
2022-12-20T03:48:24.038Z,2.70
2022-12-20T03:49:26.048Z,2.70
2022-12-20T03:50:29.032Z,2.70
2022-12-20T03:51:31.015Z,2.70
2022-12-20T03:52:34.058Z,2.70
2022-12-20T03:53:36.100Z,2.70
2022-12-20T03:54:39.044Z,2.70
2022-12-20T03:55:45.290Z,2.80
2022-12-20T03:56:47.750Z,2.80
2022-12-20T03:57:50.797Z,2.80
2022-12-20T03:58:52.801Z,2.80
2022-12-20T03:59:55.786Z,2.80
2022-12-20T04:00:58.031Z,2.90
2022-12-20T04:02:01.106Z,2.80
2022-12-20T04:03:03.195Z,2.80
2022-12-20T04:04:09.182Z,2.80
2022-12-20T04:05:11.134Z,2.80
2022-12-20T04:06:14.038Z,2.90
2022-12-20T04:07:16.467Z,2.90
2022-12-20T04:08:19.367Z,2.80
2022-12-20T04:09:21.355Z,2.90
2022-12-20T04:10:24.268Z,2.90
2022-12-20T04:11:26.194Z,2.90
2022-12-20T04:12:29.208Z,2.90
2022-12-20T04:13:31.213Z,2.80
2022-12-20T04:14:34.283Z,2.80
2022-12-20T04:15:36.227Z,2.80
2022-12-20T04:16:39.249Z,2.80
2022-12-20T04:17:42.348Z,2.90
2022-12-20T04:18:44.444Z,2.90
2022-12-20T04:19:48.782Z,2.90
2022-12-20T04:20:53.318Z,2.80
2022-12-20T04:22:04.661Z,2.80
2022-12-20T04:23:07.858Z,2.80
2022-12-20T04:24:11.503Z,2.80
2022-12-20T04:25:14.029Z,2.80
2022-12-20T04:26:17.001Z,2.90
2022-12-20T04:27:18.950Z,2.90
2022-12-20T04:28:21.842Z,2.80
2022-12-20T04:29:23.759Z,2.90
2022-12-20T04:30:26.915Z,2.80
2022-12-20T04:31:28.961Z,2.70
2022-12-20T04:32:32.007Z,2.70
2022-12-20T04:33:34.182Z,2.70
2022-12-20T04:34:37.199Z,2.80
2022-12-20T04:35:40.480Z,2.80
2022-12-20T04:36:43.374Z,2.80
2022-12-20T04:37:46.300Z,2.80
2022-12-20T04:38:49.217Z,2.90
2022-12-20T04:39:51.234Z,2.80
2022-12-20T04:40:55.933Z,2.80
2022-12-20T04:41:57.859Z,2.80
2022-12-20T04:43:00.820Z,2.80
2022-12-20T04:44:02.867Z,2.80
2022-12-20T04:45:06.585Z,2.90
2022-12-20T04:46:08.654Z,2.80
2022-12-20T04:47:11.761Z,2.90
2022-12-20T04:48:45.985Z,2.90
2022-12-20T04:49:36.728Z,2.90
2022-12-20T04:50:40.198Z,2.80
2022-12-20T04:51:43.155Z,2.80
2022-12-20T04:53:03.301Z,2.80
2022-12-20T04:54:05.730Z,2.80
2022-12-20T04:55:08.390Z,2.80
2022-12-20T04:56:11.337Z,2.80
2022-12-20T04:57:13.318Z,2.90
2022-12-20T04:58:16.581Z,2.90
2022-12-20T04:59:19.550Z,2.90
2022-12-20T05:00:22.366Z,2.90
2022-12-20T05:01:25.767Z,2.90
2022-12-20T05:02:28.007Z,2.90
2022-12-20T05:03:31.163Z,2.90
2022-12-20T05:04:37.485Z,2.90
2022-12-20T05:05:42.187Z,2.90
2022-12-20T05:06:44.107Z,2.80
2022-12-20T05:07:47.204Z,2.80
2022-12-20T05:08:50.466Z,2.70
2022-12-20T05:09:52.375Z,2.70
2022-12-20T05:10:55.304Z,2.70
2022-12-20T05:11:57.224Z,2.80
2022-12-20T05:13:05.581Z,2.80
2022-12-20T05:14:11.956Z,2.80
2022-12-20T05:15:14.335Z,2.90
2022-12-20T05:16:17.290Z,2.90
2022-12-20T05:17:19.289Z,2.80
2022-12-20T05:18:22.539Z,2.90
2022-12-20T05:19:24.823Z,2.90
2022-12-20T05:20:28.218Z,2.90
2022-12-20T05:21:50.377Z,3.00
2022-12-20T05:23:10.843Z,2.90
2022-12-20T05:24:31.466Z,2.90
2022-12-20T05:25:52.195Z,2.90
2022-12-20T05:26:55.264Z,2.90
2022-12-20T05:27:57.291Z,2.90
2022-12-20T05:29:00.198Z,2.90
2022-12-20T05:30:02.193Z,2.90
2022-12-20T05:31:05.316Z,2.90
2022-12-20T05:32:07.280Z,2.90
2022-12-20T05:33:10.196Z,2.90
2022-12-20T05:34:12.107Z,3.00
2022-12-20T05:35:15.255Z,2.90
2022-12-20T05:36:18.221Z,2.90
2022-12-20T05:37:22.699Z,2.90
2022-12-20T05:38:24.984Z,2.90
2022-12-20T05:39:27.992Z,2.80
2022-12-20T05:40:29.935Z,2.80
2022-12-20T05:41:32.945Z,2.90
2022-12-20T05:42:35.111Z,2.80
2022-12-20T05:43:38.057Z,2.90
2022-12-20T05:44:40.042Z,2.90
2022-12-20T05:45:47.150Z,2.90
2022-12-20T05:46:49.246Z,2.90
2022-12-20T05:47:52.479Z,2.90
2022-12-20T05:48:54.509Z,2.90
2022-12-20T05:49:57.435Z,3.00
2022-12-20T05:50:59.556Z,3.00
2022-12-20T05:52:03.255Z,2.90
2022-12-20T05:53:11.650Z,3.00
2022-12-20T05:54:15.103Z,3.00
2022-12-20T05:55:17.238Z,3.00
2022-12-20T05:56:20.207Z,2.90
2022-12-20T05:57:22.563Z,2.90
2022-12-20T05:58:25.495Z,2.90
2022-12-20T05:59:27.457Z,2.90
2022-12-20T06:00:30.411Z,3.00
2022-12-20T06:01:33.480Z,2.90
2022-12-20T06:02:35.879Z,2.90
2022-12-20T06:03:40.425Z,2.90
2022-12-20T06:04:42.704Z,2.90
2022-12-20T06:05:46.235Z,2.90
2022-12-20T06:06:48.260Z,2.90
2022-12-20T06:07:51.216Z,2.90
2022-12-20T06:09:20.578Z,2.90
2022-12-20T06:10:23.481Z,2.90
2022-12-20T06:11:29.846Z,2.90
2022-12-20T06:12:34.933Z,2.10
2022-12-20T06:13:36.914Z,3.00
2022-12-20T06:14:39.856Z,3.00
2022-12-20T06:15:42.807Z,3.00
2022-12-20T06:16:44.924Z,3.00
2022-12-20T06:17:49.057Z,3.00
2022-12-20T06:18:52.140Z,3.00
2022-12-20T06:19:54.111Z,3.00
2022-12-20T06:20:57.229Z,3.00
2022-12-20T06:21:59.377Z,3.00
2022-12-20T06:23:03.235Z,3.00
2022-12-20T06:24:08.563Z,3.00
2022-12-20T06:25:10.852Z,3.00
2022-12-20T06:26:13.850Z,3.00
2022-12-20T06:27:15.816Z,3.00
2022-12-20T06:28:22.013Z,3.00
2022-12-20T06:29:24.723Z,3.00
2022-12-20T06:30:33.628Z,2.90
2022-12-20T06:31:36.335Z,2.90
2022-12-20T06:32:39.598Z,3.00
2022-12-20T06:33:42.562Z,2.90
2022-12-20T06:34:44.552Z,2.90
2022-12-20T06:35:47.521Z,2.90
2022-12-20T06:36:49.558Z,2.90
2022-12-20T06:37:52.551Z,2.90
2022-12-20T06:38:55.548Z,2.90
2022-12-20T06:39:58.917Z,2.90
2022-12-20T06:41:01.905Z,2.90
2022-12-20T06:42:04.463Z,3.00
2022-12-20T06:43:07.431Z,3.00
2022-12-20T06:44:09.379Z,3.00
2022-12-20T06:45:12.588Z,3.00
2022-12-20T06:46:15.009Z,3.00
2022-12-20T06:47:18.046Z,2.90
2022-12-20T06:48:21.174Z,2.90
2022-12-20T06:49:24.270Z,2.80
2022-12-20T06:50:27.853Z,2.80
2022-12-20T06:51:29.901Z,2.90
2022-12-20T06:52:32.857Z,3.00
2022-12-20T06:53:34.853Z,3.00
2022-12-20T06:54:37.817Z,3.10
2022-12-20T06:55:41.231Z,3.10
2022-12-20T06:56:44.623Z,3.00
2022-12-20T06:57:46.779Z,3.10
2022-12-20T06:58:49.699Z,3.10
2022-12-20T06:59:51.695Z,3.10
2022-12-20T07:00:55.971Z,3.10
2022-12-20T07:01:58.130Z,3.10
2022-12-20T07:03:01.660Z,3.00
2022-12-20T07:04:04.047Z,3.00
2022-12-20T07:05:07.699Z,3.00
2022-12-20T07:06:09.808Z,3.00
2022-12-20T07:07:14.214Z,3.00
2022-12-20T07:08:16.175Z,3.00
2022-12-20T07:09:19.323Z,3.00
2022-12-20T07:10:21.258Z,3.00
2022-12-20T07:11:25.649Z,3.00
2022-12-20T07:12:29.113Z,2.90
2022-12-20T07:13:31.131Z,2.90
2022-12-20T07:14:34.041Z,2.80
2022-12-20T07:15:36.085Z,2.80
2022-12-20T07:16:41.588Z,3.00
2022-12-20T07:17:44.069Z,3.00
2022-12-20T07:18:50.615Z,3.10
2022-12-20T07:19:53.519Z,3.10
2022-12-20T07:20:59.510Z,3.00
2022-12-20T07:22:02.524Z,3.00
2022-12-20T07:23:05.544Z,3.00
2022-12-20T07:24:08.608Z,3.10
2022-12-20T07:25:11.993Z,3.10
2022-12-20T07:26:14.631Z,3.00
2022-12-20T07:27:19.049Z,3.00
2022-12-20T07:28:21.055Z,3.10
2022-12-20T07:29:24.051Z,3.10
2022-12-20T07:30:28.153Z,3.10
2022-12-20T07:31:31.118Z,3.10
2022-12-20T07:32:33.157Z,3.10
2022-12-20T07:33:37.264Z,3.10
2022-12-20T07:34:39.249Z,3.10
2022-12-20T07:35:43.676Z,3.10
2022-12-20T07:36:45.671Z,3.10
2022-12-20T07:37:48.660Z,3.10
2022-12-20T07:38:52.624Z,3.10
2022-12-20T07:39:54.525Z,3.10
2022-12-20T07:40:57.573Z,3.20
2022-12-20T07:42:00.654Z,3.20
2022-12-20T07:43:04.126Z,3.20
2022-12-20T07:44:07.366Z,3.20
2022-12-20T07:45:09.744Z,3.20
2022-12-20T07:46:14.851Z,3.20
2022-12-20T07:47:17.905Z,3.20
2022-12-20T07:48:21.753Z,3.10
2022-12-20T07:49:25.047Z,3.10
2022-12-20T07:50:27.722Z,3.10
2022-12-20T07:51:36.031Z,3.20
2022-12-20T07:52:42.572Z,3.20
2022-12-20T07:53:49.367Z,3.30
2022-12-20T07:54:54.971Z,3.20
2022-12-20T07:55:58.979Z,3.30
2022-12-20T07:57:08.346Z,3.20
2022-12-20T07:58:13.009Z,3.30
2022-12-20T07:59:20.366Z,3.30
2022-12-20T08:00:22.555Z,3.30
2022-12-20T08:01:27.280Z,3.20
2022-12-20T08:02:33.861Z,3.20
2022-12-20T08:03:39.979Z,3.20
2022-12-20T08:04:43.393Z,3.20
2022-12-20T08:05:48.067Z,3.30
2022-12-20T08:06:56.019Z,3.20
2022-12-20T08:08:00.654Z,3.20
2022-12-20T08:09:05.773Z,3.30
2022-12-20T08:10:12.341Z,3.30
2022-12-20T08:11:15.811Z,3.30
2022-12-20T08:12:20.345Z,3.30
2022-12-20T08:13:24.803Z,3.30
2022-12-20T08:14:28.184Z,3.30
2022-12-20T08:15:30.389Z,3.30
2022-12-20T08:16:33.816Z,3.30
2022-12-20T08:17:36.746Z,3.30
2022-12-20T08:18:39.677Z,3.40
2022-12-20T08:19:42.619Z,3.40
2022-12-20T08:20:44.819Z,3.40
2022-12-20T08:21:48.026Z,3.40
2022-12-20T08:22:51.081Z,3.40
2022-12-20T08:23:54.092Z,3.40
2022-12-20T08:24:56.148Z,3.40
2022-12-20T08:26:01.743Z,3.40
2022-12-20T08:27:04.803Z,3.40
2022-12-20T08:28:06.790Z,3.40
2022-12-20T08:29:11.149Z,3.40
2022-12-20T08:30:15.027Z,3.30
2022-12-20T08:31:18.008Z,3.30
2022-12-20T08:32:21.022Z,3.30
2022-12-20T08:33:23.945Z,3.40
2022-12-20T08:34:28.152Z,3.40
2022-12-20T08:35:30.143Z,3.40
2022-12-20T08:36:33.173Z,3.40
2022-12-20T08:37:36.138Z,3.40
2022-12-20T08:38:39.041Z,3.40
2022-12-20T08:39:42.016Z,3.40
2022-12-20T08:40:45.456Z,3.40
2022-12-20T08:41:48.390Z,3.40
2022-12-20T08:42:51.641Z,3.40
2022-12-20T08:43:54.562Z,3.40
2022-12-20T08:44:58.864Z,3.40
2022-12-20T08:46:01.228Z,3.30
2022-12-20T08:47:04.400Z,3.40
2022-12-20T08:48:07.663Z,3.40
2022-12-20T08:49:10.622Z,3.40
2022-12-20T08:50:13.997Z,3.40
2022-12-20T08:51:17.107Z,3.40
2022-12-20T08:52:20.141Z,3.40
2022-12-20T08:53:22.288Z,3.40
2022-12-20T08:54:25.251Z,3.40
2022-12-20T08:55:29.401Z,3.40
2022-12-20T08:56:32.680Z,3.30
2022-12-20T08:57:35.205Z,3.30
2022-12-20T08:58:38.334Z,3.30
2022-12-20T08:59:41.250Z,3.30
2022-12-20T09:00:44.816Z,3.30
2022-12-20T09:01:47.777Z,3.30
2022-12-20T09:02:51.892Z,3.30
2022-12-20T09:03:55.121Z,3.30
2022-12-20T09:04:58.113Z,3.20
2022-12-20T09:06:00.627Z,3.30
2022-12-20T09:07:03.888Z,3.30
2022-12-20T09:08:06.856Z,3.30
2022-12-20T09:09:09.811Z,3.30
2022-12-20T09:10:13.078Z,3.40
2022-12-20T09:11:18.261Z,3.40
2022-12-20T09:12:21.264Z,3.30
2022-12-20T09:13:24.170Z,3.30
2022-12-20T09:14:27.164Z,3.30
2022-12-20T09:15:29.177Z,3.40
2022-12-20T09:16:34.638Z,3.40
2022-12-20T09:17:37.539Z,3.50
2022-12-20T09:18:39.459Z,3.50
2022-12-20T09:19:42.362Z,3.50
2022-12-20T09:20:45.376Z,3.50
2022-12-20T09:21:48.345Z,3.50
2022-12-20T09:22:51.250Z,3.40
2022-12-20T09:23:54.451Z,3.50
2022-12-20T09:24:58.217Z,3.50
2022-12-20T09:26:04.127Z,3.50
2022-12-20T09:27:06.037Z,3.50
2022-12-20T09:28:09.021Z,3.50
2022-12-20T09:29:11.935Z,3.40
2022-12-20T09:30:14.385Z,3.40
2022-12-20T09:31:19.233Z,3.50
2022-12-20T09:32:23.526Z,3.50
2022-12-20T09:33:26.493Z,3.50
2022-12-20T09:34:29.595Z,3.60
2022-12-20T09:35:33.512Z,3.50
2022-12-20T09:36:36.698Z,3.50
2022-12-20T09:37:39.693Z,3.50
2022-12-20T09:38:41.709Z,3.50
2022-12-20T09:39:44.830Z,3.50
2022-12-20T09:40:49.564Z,3.50
2022-12-20T09:41:52.587Z,3.60
2022-12-20T09:42:54.860Z,3.50
2022-12-20T09:43:59.784Z,3.50
2022-12-20T09:45:08.026Z,3.50
2022-12-20T09:46:13.695Z,3.50
2022-12-20T09:47:20.614Z,3.50
2022-12-20T09:48:26.998Z,3.50
2022-12-20T09:49:32.869Z,3.60
2022-12-20T09:50:52.348Z,3.70
2022-12-20T09:52:18.258Z,3.70
2022-12-20T09:53:35.266Z,3.60
2022-12-20T09:54:49.379Z,3.60
2022-12-20T09:56:00.044Z,3.60
2022-12-20T09:57:10.928Z,3.60
2022-12-20T09:58:24.980Z,3.60
2022-12-20T09:59:28.697Z,3.70
2022-12-20T10:00:35.696Z,3.70
2022-12-20T10:01:40.569Z,3.70
2022-12-20T10:03:06.481Z,3.60
2022-12-20T10:04:19.296Z,3.60
2022-12-20T10:05:35.666Z,3.60
2022-12-20T10:06:52.990Z,3.70
2022-12-20T10:08:03.827Z,3.60
2022-12-20T10:09:14.617Z,3.60
2022-12-20T10:10:47.194Z,3.60
2022-12-20T10:12:04.156Z,3.70
2022-12-20T10:13:19.354Z,3.60
2022-12-20T10:14:47.216Z,3.60
2022-12-20T10:15:54.046Z,3.60
2022-12-20T10:17:00.819Z,3.60
2022-12-20T10:18:22.957Z,3.60
2022-12-20T10:19:51.017Z,3.70
2022-12-20T10:21:01.034Z,3.80
2022-12-20T10:22:09.589Z,3.70
2022-12-20T10:23:17.736Z,3.70
2022-12-20T10:24:24.319Z,3.70
2022-12-20T10:25:32.959Z,3.80
2022-12-20T10:26:35.983Z,3.80
2022-12-20T10:27:42.308Z,3.90
2022-12-20T10:28:48.056Z,3.90
2022-12-20T10:29:55.371Z,4.00
2022-12-20T10:31:02.690Z,4.00
2022-12-20T10:32:14.236Z,4.00
2022-12-20T10:33:23.497Z,3.90
2022-12-20T10:34:30.111Z,3.90
2022-12-20T10:35:40.673Z,3.70
2022-12-20T10:36:42.740Z,3.70
2022-12-20T10:38:08.408Z,3.70
2022-12-20T10:39:12.205Z,3.80
2022-12-20T10:40:46.423Z,3.80
2022-12-20T10:41:52.005Z,3.80
2022-12-20T10:42:54.605Z,3.90
2022-12-20T10:44:00.804Z,4.00
2022-12-20T10:45:04.480Z,4.00
2022-12-20T10:46:09.385Z,4.00
2022-12-20T10:47:26.589Z,3.90
2022-12-20T10:48:34.175Z,4.00
2022-12-20T10:49:41.007Z,3.90
2022-12-20T10:50:56.813Z,3.90
2022-12-20T10:52:02.714Z,3.90
2022-12-20T10:53:20.563Z,3.90
2022-12-20T10:54:25.637Z,3.90
2022-12-20T10:55:37.378Z,3.90
2022-12-20T10:56:40.407Z,3.90
2022-12-20T10:57:43.650Z,3.90
2022-12-20T10:58:54.389Z,4.00
2022-12-20T11:00:00.189Z,4.00
2022-12-20T11:01:12.944Z,4.10
2022-12-20T11:02:35.046Z,4.10
2022-12-20T11:03:54.603Z,4.00
2022-12-20T11:05:16.736Z,4.00
2022-12-20T11:06:22.433Z,4.00
2022-12-20T11:07:26.870Z,4.00
2022-12-20T11:08:39.120Z,4.00
2022-12-20T11:09:55.404Z,4.00
2022-12-20T11:11:16.766Z,4.00
2022-12-20T11:12:19.814Z,3.90
2022-12-20T11:13:25.899Z,3.90
2022-12-20T11:14:36.517Z,3.90
2022-12-20T11:15:51.248Z,3.90
2022-12-20T11:16:55.219Z,3.90
2022-12-20T11:18:04.402Z,4.00
2022-12-20T11:19:30.240Z,4.00
2022-12-20T11:20:39.687Z,4.00
2022-12-20T11:21:53.466Z,4.00
2022-12-20T11:23:07.882Z,4.10
2022-12-20T11:24:15.407Z,4.10
2022-12-20T11:25:35.047Z,4.10
2022-12-20T11:26:54.296Z,4.20
2022-12-20T11:28:09.727Z,4.20
2022-12-20T11:29:30.615Z,4.20
2022-12-20T11:30:43.152Z,4.20
2022-12-20T11:31:56.343Z,4.20
2022-12-20T11:33:19.730Z,4.20
2022-12-20T11:34:36.876Z,4.10
2022-12-20T11:35:51.800Z,4.10
2022-12-20T11:37:11.957Z,4.20
2022-12-20T11:38:25.870Z,4.20
2022-12-20T11:39:34.062Z,4.20
2022-12-20T11:40:44.109Z,4.20
2022-12-20T11:41:57.869Z,4.20
2022-12-20T11:44:01.127Z,4.20
2022-12-20T11:45:09.765Z,4.10
2022-12-20T11:46:25.217Z,4.00
2022-12-20T11:47:52.232Z,4.10
2022-12-20T11:49:29.215Z,4.90
2022-12-20T11:50:53.151Z,3.90
2022-12-20T11:52:06.029Z,3.90
2022-12-20T11:53:16.965Z,4.00
2022-12-20T11:54:27.099Z,4.00
2022-12-20T11:55:33.902Z,4.10
2022-12-20T11:56:44.338Z,4.10
2022-12-20T11:58:17.381Z,3.80
2022-12-20T11:59:28.940Z,3.90
2022-12-20T12:00:35.250Z,3.90
2022-12-20T12:01:45.006Z,3.90
2022-12-20T12:02:57.991Z,3.90
2022-12-20T12:04:10.824Z,4.00
2022-12-20T12:05:20.746Z,4.00
2022-12-20T12:06:28.369Z,3.90
2022-12-20T12:07:34.666Z,4.00
2022-12-20T12:08:43.881Z,4.00
2022-12-20T12:09:51.994Z,4.00
2022-12-20T12:10:59.374Z,4.00
2022-12-20T12:12:07.693Z,4.00
2022-12-20T12:13:18.737Z,4.00
2022-12-20T12:14:39.621Z,4.00
2022-12-20T12:15:52.182Z,4.00
2022-12-20T12:17:00.110Z,4.10
2022-12-20T12:18:07.707Z,4.10
2022-12-20T12:19:11.546Z,4.00
2022-12-20T12:20:26.662Z,4.00
2022-12-20T12:21:34.498Z,4.20
2022-12-20T12:22:41.426Z,4.10
2022-12-20T12:23:55.352Z,4.10
2022-12-20T12:25:00.124Z,4.10
2022-12-20T12:26:06.723Z,4.20
2022-12-20T12:27:23.515Z,4.20
2022-12-20T12:28:26.697Z,4.20
2022-12-20T12:29:32.133Z,4.20
2022-12-20T12:30:40.890Z,4.20
2022-12-20T12:31:48.227Z,4.20
2022-12-20T12:32:56.871Z,4.20
2022-12-20T12:34:11.390Z,4.20
2022-12-20T12:35:37.883Z,4.10
2022-12-20T12:37:05.818Z,4.20
2022-12-20T12:38:38.090Z,4.20
2022-12-20T12:40:00.071Z,4.20
2022-12-20T12:41:29.243Z,4.20
2022-12-20T12:43:00.004Z,4.20
2022-12-20T12:44:23.945Z,4.20
2022-12-20T12:45:28.171Z,4.20
2022-12-20T12:46:36.283Z,4.20
2022-12-20T12:47:45.947Z,4.10
2022-12-20T12:48:55.669Z,4.10
2022-12-20T12:49:58.004Z,4.10
2022-12-20T12:51:03.036Z,4.10
2022-12-20T12:52:07.188Z,4.10
2022-12-20T12:53:17.059Z,4.10
2022-12-20T12:54:25.746Z,4.10
2022-12-20T12:55:41.484Z,4.10
2022-12-20T12:56:47.455Z,4.20
2022-12-20T12:57:57.258Z,4.10
2022-12-20T12:59:22.116Z,4.20
2022-12-20T13:00:49.725Z,4.30
2022-12-20T13:01:54.832Z,4.20
2022-12-20T13:02:57.967Z,4.10
2022-12-20T13:04:22.997Z,4.00
2022-12-20T13:05:35.355Z,4.00
2022-12-20T13:06:53.980Z,4.10
2022-12-20T13:07:56.901Z,4.10
2022-12-20T13:09:20.733Z,4.10
2022-12-20T13:11:01.783Z,4.10
2022-12-20T13:12:40.143Z,4.10
2022-12-20T13:13:43.097Z,4.10
2022-12-20T13:14:51.005Z,4.20
2022-12-20T13:16:07.548Z,4.10
2022-12-20T13:17:47.973Z,4.10
2022-12-20T13:19:14.785Z,4.10
2022-12-20T13:20:21.092Z,4.10
2022-12-20T13:21:38.018Z,4.10
2022-12-20T13:22:40.966Z,4.10
2022-12-20T13:23:42.961Z,4.10
2022-12-20T13:24:57.312Z,4.10
2022-12-20T13:26:00.804Z,4.10
2022-12-20T13:27:05.389Z,4.10
2022-12-20T13:28:46.490Z,4.10
2022-12-20T13:30:22.179Z,4.10
2022-12-20T13:31:34.513Z,4.00
2022-12-20T13:32:58.852Z,4.10
2022-12-20T13:34:03.996Z,4.10
2022-12-20T13:35:33.079Z,4.10
2022-12-20T13:36:39.310Z,4.10
2022-12-20T13:37:55.139Z,4.00
2022-12-20T13:39:00.722Z,4.00
2022-12-20T13:40:06.902Z,4.00
2022-12-20T13:41:20.556Z,4.00
2022-12-20T13:42:39.574Z,4.00
2022-12-20T13:43:44.787Z,4.10
2022-12-20T13:44:48.828Z,4.10
2022-12-20T13:45:54.733Z,4.10
2022-12-20T13:47:02.875Z,4.10
2022-12-20T13:48:11.720Z,4.20
2022-12-20T13:49:21.741Z,4.10
2022-12-20T13:50:28.982Z,4.20
2022-12-20T13:51:33.388Z,4.00
2022-12-20T13:52:44.611Z,4.00
2022-12-20T13:53:53.644Z,4.00
2022-12-20T13:54:59.418Z,4.00
2022-12-20T13:56:32.186Z,4.00
2022-12-20T13:57:44.720Z,4.00
2022-12-20T13:58:48.436Z,4.10
2022-12-20T14:00:00.029Z,4.10
2022-12-20T14:01:11.154Z,4.10
2022-12-20T14:02:21.643Z,4.10
2022-12-20T14:03:27.582Z,4.00
2022-12-20T14:04:42.576Z,4.10
2022-12-20T14:05:45.640Z,4.10
2022-12-20T14:06:54.337Z,4.20
2022-12-20T14:08:00.848Z,4.20
2022-12-20T14:09:05.816Z,4.10
2022-12-20T14:10:20.825Z,4.00
2022-12-20T14:11:26.859Z,4.10
2022-12-20T14:12:36.515Z,4.10
2022-12-20T14:13:40.976Z,4.10
2022-12-20T14:14:44.598Z,4.10
2022-12-20T14:15:47.553Z,4.10
2022-12-20T14:16:50.541Z,4.10
2022-12-20T14:17:52.613Z,4.10
2022-12-20T14:19:03.165Z,4.10
2022-12-20T14:20:14.044Z,4.00
2022-12-20T14:21:17.691Z,4.00
2022-12-20T14:22:21.228Z,4.00
2022-12-20T14:23:26.880Z,4.10
2022-12-20T14:24:30.238Z,4.10
2022-12-20T14:25:44.300Z,4.10
2022-12-20T14:26:51.027Z,4.00
2022-12-20T14:27:53.232Z,4.00
2022-12-20T14:28:58.073Z,4.10
2022-12-20T14:30:00.297Z,4.00
2022-12-20T14:31:04.399Z,4.00
2022-12-20T14:32:07.731Z,4.00
2022-12-20T14:33:26.175Z,4.00
2022-12-20T14:34:34.180Z,4.00
2022-12-20T14:35:48.301Z,4.00
2022-12-20T14:36:51.785Z,4.00
2022-12-20T14:37:57.631Z,4.00
2022-12-20T14:39:02.212Z,4.10
2022-12-20T14:40:17.960Z,4.10
2022-12-20T14:41:32.529Z,4.10
2022-12-20T14:42:37.034Z,4.00
2022-12-20T14:43:39.959Z,4.00
2022-12-20T14:44:42.167Z,4.10
2022-12-20T14:45:45.280Z,4.10
2022-12-20T14:46:49.560Z,4.10
2022-12-20T14:47:59.269Z,4.10
2022-12-20T14:49:19.732Z,4.10